Time;durP1;ratioP1;P1;durP2;ratioP2;P2;SDS_P1;SDS_P2;PMS_P1;PMS_P2;Temp;Humidity;BMP_temperature;BMP_pressure;BME280_temperature;BME280_humidity;BME280_pressure;Samples;Min_cycle;Max_cycle;Signal;HPM_P1;HPM_P2
2022/08/29 00:01:07;;;;;;;9.07;8.13;;;19.50;99.90;;;;;;5033111;28;20196;-69
2022/08/29 00:03:34;;;;;;;8.90;7.43;;;19.50;99.90;;;;;;5033222;28;20173;-69
2022/08/29 00:06:01;;;;;;;8.30;7.60;;;19.50;99.90;;;;;;5033607;28;20511;-69
2022/08/29 00:08:26;;;;;;;8.50;7.70;;;19.40;99.90;;;;;;5033334;28;20464;-69
2022/08/29 00:10:52;;;;;;;8.40;6.83;;;19.40;99.90;;;;;;5033305;28;20729;-69
2022/08/29 00:13:18;;;;;;;9.57;8.10;;;19.30;99.90;;;;;;5032175;28;20168;-69
2022/08/29 00:15:44;;;;;;;8.17;7.33;;;19.20;99.90;;;;;;5032478;28;20163;-69
2022/08/29 00:18:10;;;;;;;8.70;7.30;;;19.10;99.90;;;;;;5032577;28;20501;-69
2022/08/29 00:20:36;;;;;;;9.50;8.50;;;19.10;99.90;;;;;;5032987;28;20449;-69
2022/08/29 00:23:04;;;;;;;8.67;7.73;;;19.10;99.90;;;;;;5033376;28;20493;-69
2022/08/29 00:25:30;;;;;;;8.67;7.77;;;19.10;99.90;;;;;;5033010;28;20442;-69
2022/08/29 00:27:55;;;;;;;8.30;7.50;;;19.10;99.90;;;;;;5032942;28;20848;-69
2022/08/29 00:30:22;;;;;;;8.97;8.03;;;19.10;99.90;;;;;;5032901;28;20453;-69
2022/08/29 00:32:47;;;;;;;7.00;6.37;;;19.10;99.90;;;;;;5032807;28;20167;-69
2022/08/29 00:35:17;;;;;;;8.07;7.37;;;19.00;99.90;;;;;;5032881;28;20986;-69
2022/08/29 00:37:43;;;;;;;8.00;7.30;;;19.00;99.90;;;;;;5033160;28;20646;-69
2022/08/29 00:40:12;;;;;;;8.37;7.50;;;18.90;99.90;;;;;;5033150;28;20426;-69
2022/08/29 00:42:38;;;;;;;7.90;7.20;;;19.00;99.90;;;;;;5032919;28;20405;-69
2022/08/29 00:45:06;;;;;;;8.60;7.80;;;19.00;99.90;;;;;;5032833;28;20442;-69
2022/08/29 00:47:37;;;;;;;8.53;7.73;;;19.00;99.90;;;;;;5032340;28;20544;-69
2022/08/29 00:50:07;;;;;;;12.63;9.63;;;19.00;99.90;;;;;;5032870;28;20430;-69
2022/08/29 00:52:45;;;;;;;8.63;7.33;;;19.00;99.90;;;;;;5033203;28;20395;-69
2022/08/29 00:55:15;;;;;;;7.57;6.93;;;19.00;99.90;;;;;;5032914;28;20390;-69
2022/08/29 00:57:45;;;;;;;9.63;8.63;;;18.90;99.90;;;;;;5032775;28;20883;-69
2022/08/29 01:00:12;;;;;;;11.03;8.77;;;18.90;99.90;;;;;;5032860;28;20480;-69
2022/08/29 01:02:40;;;;;;;11.20;7.80;;;18.90;99.90;;;;;;5032534;28;20753;-69
2022/08/29 01:05:08;;;;;;;8.27;7.57;;;18.80;99.90;;;;;;5032815;28;20442;-69
2022/08/29 01:07:33;;;;;;;7.83;7.20;;;18.70;99.90;;;;;;5032561;28;20413;-68
2022/08/29 01:09:59;;;;;;;8.90;8.00;;;18.80;99.90;;;;;;5033952;28;20430;-69
2022/08/29 01:12:26;;;;;;;8.97;7.63;;;18.90;99.90;;;;;;5035275;28;20178;-68
2022/08/29 01:15:00;;;;;;;8.93;8.13;;;18.80;99.90;;;;;;5036766;28;20178;-69
2022/08/29 01:17:30;;;;;;;11.57;9.07;;;18.80;99.90;;;;;;5035320;28;20817;-69
2022/08/29 01:20:06;;;;;;;8.70;7.80;;;18.60;99.90;;;;;;5036623;28;20502;-69
2022/08/29 01:22:56;;;;;;;8.13;7.33;;;18.60;99.90;;;;;;5036474;28;20394;-69
2022/08/29 01:25:26;;;;;;;8.57;7.77;;;18.50;99.90;;;;;;5036804;28;20437;-69
2022/08/29 01:28:02;;;;;;;8.20;7.40;;;18.40;99.90;;;;;;5035560;28;20418;-69
2022/08/29 01:30:28;;;;;;;9.57;8.43;;;18.40;99.90;;;;;;5037037;28;21105;-69
2022/08/29 01:32:56;;;;;;;9.97;9.00;;;18.40;99.90;;;;;;5036218;28;20477;-69
2022/08/29 01:35:23;;;;;;;10.60;8.53;;;18.40;99.90;;;;;;5036356;28;20325;-69
2022/08/29 01:37:49;;;;;;;8.63;7.83;;;18.40;99.90;;;;;;5036170;28;20416;-69
2022/08/29 01:40:15;;;;;;;10.23;9.23;;;18.40;99.90;;;;;;5036262;28;20761;-69
2022/08/29 01:42:40;;;;;;;9.40;7.47;;;18.30;99.90;;;;;;5035983;28;20261;-68
2022/08/29 01:45:07;;;;;;;10.80;8.60;;;18.30;99.90;;;;;;5036484;28;20277;-68
2022/08/29 01:47:34;;;;;;;10.13;9.10;;;18.40;99.90;;;;;;5035785;28;20278;-68
2022/08/29 01:50:01;;;;;;;9.80;8.83;;;18.40;99.90;;;;;;5035885;28;20478;-68
2022/08/29 01:52:27;;;;;;;8.57;7.77;;;18.30;99.90;;;;;;5036098;28;20398;-68
2022/08/29 01:54:53;;;;;;;9.00;8.10;;;18.30;99.90;;;;;;5036004;28;20501;-69
2022/08/29 01:57:18;;;;;;;9.17;8.27;;;18.30;99.90;;;;;;5035705;28;20826;-69
2022/08/29 01:59:44;;;;;;;8.70;7.80;;;18.40;99.90;;;;;;5036226;28;20176;-69
2022/08/29 02:02:20;;;;;;;9.80;9.00;;;18.50;99.90;;;;;;5035692;28;20177;-68
2022/08/29 02:04:47;;;;;;;10.00;8.73;;;18.50;99.90;;;;;;5035784;28;20186;-69
2022/08/29 02:07:16;;;;;;;9.83;8.83;;;18.40;99.90;;;;;;5035786;28;20432;-69
2022/08/29 02:09:42;;;;;;;10.90;8.40;;;18.40;99.90;;;;;;5035417;28;20829;-68
2022/08/29 02:12:08;;;;;;;8.17;7.37;;;18.40;99.90;;;;;;5035690;28;20486;-68
2022/08/29 02:14:34;;;;;;;8.17;7.37;;;18.50;99.90;;;;;;5035457;28;20817;-68
2022/08/29 02:17:01;;;;;;;10.63;9.70;;;18.50;99.90;;;;;;5034041;28;20176;-69
2022/08/29 02:19:27;;;;;;;8.00;7.27;;;18.50;99.90;;;;;;5035374;28;20883;-68
2022/08/29 02:21:53;;;;;;;10.20;9.30;;;18.50;99.90;;;;;;5034125;28;20468;-69
2022/08/29 02:24:19;;;;;;;9.90;9.00;;;18.50;99.90;;;;;;5035427;28;20610;-68
2022/08/29 02:26:44;;;;;;;9.63;8.83;;;18.40;99.90;;;;;;5035246;28;20202;-68
2022/08/29 02:29:11;;;;;;;10.63;9.63;;;18.40;99.90;;;;;;5035371;28;20410;-68
2022/08/29 02:31:39;;;;;;;9.40;7.93;;;18.40;99.90;;;;;;5034920;28;20218;-68
2022/08/29 02:34:05;;;;;;;10.00;9.00;;;18.40;99.90;;;;;;5035412;28;20772;-68
2022/08/29 02:36:31;;;;;;;8.83;8.00;;;18.20;99.90;;;;;;5035019;28;20414;-68
2022/08/29 02:38:56;;;;;;;10.53;9.53;;;18.10;99.90;;;;;;5034508;28;20774;-67
2022/08/29 02:41:22;;;;;;;11.00;9.00;;;18.10;99.90;;;;;;5035281;28;20685;-67
2022/08/29 02:43:48;;;;;;;10.20;8.40;;;18.20;99.90;;;;;;5035116;28;20176;-69
2022/08/29 02:46:18;;;;;;;10.57;9.57;;;18.20;99.90;;;;;;5034614;28;20195;-68
2022/08/29 02:48:46;;;;;;;11.43;10.33;;;18.00;99.90;;;;;;5035385;28;20171;-69
2022/08/29 02:51:23;;;;;;;11.20;9.97;;;17.90;99.90;;;;;;5034661;28;20829;-69
2022/08/29 02:53:49;;;;;;;10.70;9.27;;;17.90;99.90;;;;;;5034591;28;20401;-68
2022/08/29 02:56:15;;;;;;;9.60;8.70;;;17.90;99.90;;;;;;5034778;28;20405;-68
2022/08/29 02:58:41;;;;;;;9.83;8.90;;;18.00;99.90;;;;;;5034843;28;20172;-68
2022/08/29 03:01:07;;;;;;;10.23;9.33;;;18.00;99.90;;;;;;5034791;28;20194;-69
2022/08/29 03:03:33;;;;;;;9.67;8.77;;;18.10;99.90;;;;;;5034897;28;20209;-69
2022/08/29 03:05:59;;;;;;;11.60;10.40;;;18.00;99.90;;;;;;5035088;28;20489;-68
2022/08/29 03:08:25;;;;;;;10.73;9.63;;;18.00;99.90;;;;;;5034775;28;20256;-68
2022/08/29 03:10:51;;;;;;;10.40;9.40;;;18.00;99.90;;;;;;5034626;28;20193;-69
2022/08/29 03:13:17;;;;;;;10.40;9.40;;;17.90;99.90;;;;;;5034927;28;20198;-68
2022/08/29 03:15:43;;;;;;;9.87;8.90;;;17.90;99.90;;;;;;5034608;28;20504;-68
2022/08/29 03:18:09;;;;;;;11.60;10.40;;;17.90;99.90;;;;;;5033789;28;20550;-68
2022/08/29 03:20:35;;;;;;;10.80;9.90;;;17.80;99.90;;;;;;5034767;28;20187;-68
2022/08/29 03:23:02;;;;;;;11.93;10.73;;;17.90;99.90;;;;;;5033928;28;20428;-68
2022/08/29 03:25:28;;;;;;;13.97;12.57;;;17.90;99.90;;;;;;5033785;28;20456;-69
2022/08/29 03:27:53;;;;;;;11.30;10.23;;;17.90;99.90;;;;;;5034180;28;20409;-69
2022/08/29 03:30:19;;;;;;;12.70;10.53;;;17.80;99.90;;;;;;5034207;28;20212;-68
2022/08/29 03:32:45;;;;;;;12.10;11.00;;;17.80;99.90;;;;;;5033482;28;20257;-69
2022/08/29 03:35:12;;;;;;;11.00;10.00;;;17.80;99.90;;;;;;5034194;28;20943;-69
2022/08/29 03:37:38;;;;;;;11.80;10.60;;;17.70;99.90;;;;;;5033948;28;20418;-69
2022/08/29 03:40:06;;;;;;;11.50;10.30;;;17.80;99.90;;;;;;5032690;28;20449;-68
2022/08/29 03:42:32;;;;;;;11.93;10.83;;;17.70;99.90;;;;;;5033782;28;20421;-69
2022/08/29 03:44:57;;;;;;;11.93;10.83;;;17.80;99.90;;;;;;5034038;28;20516;-69
2022/08/29 03:47:23;;;;;;;13.43;11.67;;;17.70;99.90;;;;;;5033786;28;20516;-68
2022/08/29 03:49:48;;;;;;;14.27;10.27;;;17.70;99.90;;;;;;5033771;28;20253;-69
2022/08/29 03:52:15;;;;;;;11.73;10.63;;;17.70;99.90;;;;;;5034267;28;20162;-69
2022/08/29 03:54:40;;;;;;;10.67;9.67;;;17.70;99.90;;;;;;5032059;28;20230;-69
2022/08/29 03:57:07;;;;;;;9.70;8.90;;;17.70;99.90;;;;;;5033966;28;20504;-69
2022/08/29 03:59:33;;;;;;;11.57;8.70;;;17.70;99.90;;;;;;5033865;28;20164;-69
2022/08/29 04:01:59;;;;;;;12.23;10.97;;;17.60;99.90;;;;;;5033382;28;20523;-69
2022/08/29 04:07:11;;;;;;;10.40;9.60;;;17.70;99.90;;;;;;5033637;28;20388;-69
2022/08/29 04:09:39;;;;;;;10.70;9.60;;;17.60;99.90;;;;;;5032724;28;20397;-69
2022/08/29 04:12:06;;;;;;;10.50;9.50;;;17.50;99.90;;;;;;5031832;28;20408;-69
2022/08/29 04:14:31;;;;;;;11.30;9.60;;;17.50;99.90;;;;;;5033409;28;20434;-69
2022/08/29 04:16:57;;;;;;;10.13;9.33;;;17.50;99.90;;;;;;5032182;28;20455;-69
2022/08/29 04:19:22;;;;;;;10.37;9.43;;;17.50;99.90;;;;;;5033172;28;20679;-69
2022/08/29 04:21:48;;;;;;;10.97;9.97;;;17.50;99.90;;;;;;5032304;28;20571;-68
2022/08/29 04:24:18;;;;;;;11.80;10.53;;;17.60;99.90;;;;;;5015725;28;20209;-68
2022/08/29 04:26:44;;;;;;;11.20;10.10;;;17.50;99.90;;;;;;5013258;28;20196;-68
2022/08/29 04:29:12;;;;;;;11.50;10.40;;;17.50;99.90;;;;;;5013559;28;20410;-68
2022/08/29 04:31:40;;;;;;;10.87;9.67;;;17.50;99.90;;;;;;5012955;28;20514;-68
2022/08/29 04:34:07;;;;;;;11.57;10.43;;;17.40;99.90;;;;;;5012624;28;20399;-68
2022/08/29 04:36:34;;;;;;;12.43;9.30;;;17.40;99.90;;;;;;5013495;28;20498;-68
2022/08/29 04:39:00;;;;;;;12.07;11.10;;;17.30;99.90;;;;;;5032237;28;20437;-68
2022/08/29 04:41:25;;;;;;;12.57;11.33;;;17.40;99.90;;;;;;5032966;28;20471;-68
2022/08/29 04:43:51;;;;;;;12.23;11.07;;;17.30;99.90;;;;;;5033149;28;20201;-68
2022/08/29 04:46:17;;;;;;;10.43;9.37;;;17.40;99.90;;;;;;5033513;28;20194;-68
2022/08/29 04:48:43;;;;;;;10.93;9.80;;;17.40;99.90;;;;;;5032703;28;20167;-68
2022/08/29 04:51:09;;;;;;;9.27;8.43;;;17.40;99.90;;;;;;5031771;28;20878;-68
2022/08/29 04:53:35;;;;;;;10.97;9.87;;;17.40;99.90;;;;;;5032665;28;20169;-68
2022/08/29 04:56:05;;;;;;;11.03;10.03;;;17.40;99.90;;;;;;5033105;28;20417;-68
2022/08/29 04:58:32;;;;;;;10.13;8.83;;;17.40;99.90;;;;;;5033087;28;20328;-68
2022/08/29 05:00:58;;;;;;;10.37;9.33;;;17.40;99.90;;;;;;5032975;28;20533;-68
2022/08/29 05:03:23;;;;;;;11.83;10.73;;;17.30;99.90;;;;;;5032978;28;20535;-68
2022/08/29 05:06:16;;;;;;;11.77;9.97;;;17.40;99.90;;;;;;5032808;28;20201;-69
2022/08/29 05:08:42;;;;;;;10.70;9.67;;;17.40;99.90;;;;;;5030931;28;20576;-69
2022/08/29 05:11:11;;;;;;;10.10;9.10;;;17.40;99.90;;;;;;5032781;28;20420;-68
2022/08/29 05:13:36;;;;;;;11.17;10.07;;;17.40;99.90;;;;;;5032706;28;20161;-69
2022/08/29 05:16:07;;;;;;;10.37;9.57;;;17.40;99.90;;;;;;5032563;28;20419;-68
2022/08/29 05:18:32;;;;;;;11.73;10.53;;;17.20;99.90;;;;;;5031371;28;20177;-68
2022/08/29 05:20:58;;;;;;;11.80;9.87;;;17.20;99.90;;;;;;5032528;28;20574;-68
2022/08/29 05:23:24;;;;;;;9.50;8.60;;;17.20;99.90;;;;;;5032717;28;20170;-67
2022/08/29 05:25:59;;;;;;;9.90;8.90;;;17.30;99.90;;;;;;5031459;28;20196;-69
2022/08/29 05:28:26;;;;;;;11.60;10.50;;;17.50;99.90;;;;;;5032593;28;20534;-69
2022/08/29 05:30:52;;;;;;;11.73;10.63;;;17.40;99.90;;;;;;5033165;28;20948;-68
2022/08/29 05:33:18;;;;;;;11.40;10.20;;;17.50;99.90;;;;;;5032614;28;20433;-69
2022/08/29 05:35:43;;;;;;;10.23;9.33;;;17.60;99.90;;;;;;5032460;28;20407;-69
2022/08/29 05:38:09;;;;;;;9.50;8.70;;;17.70;99.90;;;;;;5032770;28;20589;-69
2022/08/29 05:40:36;;;;;;;12.63;11.43;;;17.70;99.90;;;;;;5032379;28;20288;-69
2022/08/29 05:43:01;;;;;;;11.30;10.27;;;17.90;99.90;;;;;;5032539;28;20189;-68
2022/08/29 05:45:27;;;;;;;10.60;9.70;;;17.90;99.90;;;;;;5032743;28;20960;-68
2022/08/29 05:47:55;;;;;;;11.60;9.40;;;18.00;99.90;;;;;;5031998;28;20170;-69
2022/08/29 05:50:21;;;;;;;9.90;8.90;;;18.00;99.90;;;;;;5047973;23;20248;-68
2022/08/29 05:52:47;;;;;;;10.53;9.53;;;18.00;99.90;;;;;;5047284;28;20448;-69
2022/08/29 05:55:13;;;;;;;9.97;9.07;;;18.10;99.90;;;;;;5031663;28;20878;-70
2022/08/29 05:57:38;;;;;;;10.07;9.13;;;18.20;99.90;;;;;;5035172;28;20405;-69
2022/08/29 06:00:07;;;;;;;9.47;8.57;;;18.20;99.90;;;;;;5035482;28;20169;-69
2022/08/29 06:02:33;;;;;;;10.97;9.93;;;18.30;99.90;;;;;;5014969;28;20652;-69
2022/08/29 06:04:58;;;;;;;11.13;10.10;;;18.30;99.90;;;;;;5015660;28;20459;-69
2022/08/29 06:07:24;;;;;;;10.53;9.50;;;18.40;99.90;;;;;;5015825;28;20189;-69
2022/08/29 06:09:51;;;;;;;10.47;9.50;;;18.40;99.90;;;;;;5016263;28;20551;-69
2022/08/29 06:12:18;;;;;;;11.20;10.10;;;18.50;99.90;;;;;;5015059;28;20188;-69
2022/08/29 06:14:44;;;;;;;11.33;10.37;;;18.60;99.90;;;;;;5015237;28;20403;-69
2022/08/29 06:17:10;;;;;;;10.83;9.73;;;18.70;99.90;;;;;;5013741;28;20411;-69
2022/08/29 06:19:38;;;;;;;12.17;10.47;;;18.80;99.90;;;;;;5015633;28;20407;-69
2022/08/29 06:22:06;;;;;;;11.80;10.70;;;18.90;99.90;;;;;;5015082;28;20445;-69
2022/08/29 06:24:33;;;;;;;12.43;11.23;;;19.00;99.90;;;;;;5015236;28;20415;-70
2022/08/29 06:26:59;;;;;;;11.60;10.37;;;19.10;99.90;;;;;;5014435;28;20434;-68
2022/08/29 06:29:26;;;;;;;9.93;9.00;;;19.30;99.90;;;;;;5015187;28;20414;-67
2022/08/29 06:31:56;;;;;;;11.10;10.10;;;19.40;99.90;;;;;;5014344;28;20449;-67
2022/08/29 06:34:22;;;;;;;12.17;11.07;;;19.50;99.90;;;;;;5015151;28;20440;-68
2022/08/29 06:36:50;;;;;;;11.87;10.67;;;19.50;99.90;;;;;;5015344;28;20410;-68
2022/08/29 06:39:16;;;;;;;12.83;11.53;;;19.60;99.90;;;;;;5016460;28;20415;-66
2022/08/29 06:42:21;;;;;;;10.90;9.80;;;19.70;99.90;;;;;;5014708;28;20422;-69
2022/08/29 06:44:47;;;;;;;10.67;9.67;;;19.80;99.90;;;;;;4973689;28;20815;-68
2022/08/29 06:47:13;;;;;;;11.30;10.17;;;19.80;99.90;;;;;;5007635;28;20422;-69
2022/08/29 06:49:38;;;;;;;9.90;9.00;;;19.90;99.90;;;;;;5014747;28;20175;-68
2022/08/29 06:52:04;;;;;;;10.60;9.43;;;20.00;99.90;;;;;;5014685;28;20767;-69
2022/08/29 06:54:30;;;;;;;10.00;9.07;;;20.10;99.90;;;;;;5015292;28;20164;-69
2022/08/29 06:56:56;;;;;;;10.60;9.20;;;20.30;99.90;;;;;;5013292;28;20221;-69
2022/08/29 06:59:22;;;;;;;9.97;9.07;;;20.40;99.90;;;;;;5014454;28;20708;-68
2022/08/29 07:01:48;;;;;;;10.97;9.90;;;20.50;99.90;;;;;;5013878;28;20462;-68
2022/08/29 07:04:14;;;;;;;11.40;10.20;;;20.50;99.90;;;;;;5014362;28;20211;-68
2022/08/29 07:06:40;;;;;;;15.03;10.10;;;20.50;99.90;;;;;;5013922;28;20470;-68
2022/08/29 07:09:07;;;;;;;12.50;11.20;;;20.60;99.90;;;;;;5013602;28;20259;-68
2022/08/29 07:11:35;;;;;;;12.10;11.00;;;20.60;99.90;;;;;;5013983;28;20951;-68
2022/08/29 07:14:03;;;;;;;12.83;11.37;;;20.60;99.90;;;;;;5013239;28;20410;-68
2022/08/29 07:16:30;;;;;;;11.00;9.80;;;20.70;99.90;;;;;;5001096;28;20444;-69
2022/08/29 07:18:56;;;;;;;10.60;9.50;;;20.80;99.90;;;;;;5012095;28;20429;-68
2022/08/29 07:21:24;;;;;;;12.53;10.40;;;20.80;99.90;;;;;;5014638;28;20434;-69
2022/08/29 07:23:52;;;;;;;11.40;10.30;;;20.70;99.90;;;;;;5014632;28;20585;-68
2022/08/29 07:26:21;;;;;;;12.20;11.00;;;20.20;99.90;;;;;;5012847;28;20854;-69
2022/08/29 07:28:48;;;;;;;13.90;10.10;;;20.10;99.90;;;;;;5013862;28;20418;-68
2022/08/29 07:31:14;;;;;;;12.47;11.23;;;20.00;99.90;;;;;;5014187;28;20418;-68
2022/08/29 07:33:39;;;;;;;13.23;11.20;;;20.00;99.90;;;;;;5013799;28;20414;-68
2022/08/29 07:36:05;;;;;;;13.50;10.50;;;19.90;99.90;;;;;;5014363;28;20174;-68
2022/08/29 07:38:31;;;;;;;12.37;11.17;;;19.90;99.90;;;;;;5012662;28;20672;-68
2022/08/29 07:41:08;;;;;;;11.63;10.10;;;19.90;99.90;;;;;;5013762;28;20200;-68
2022/08/29 07:43:35;;;;;;;13.17;11.30;;;19.90;99.90;;;;;;5013826;28;20486;-69
2022/08/29 07:46:13;;;;;;;12.20;11.00;;;20.00;99.90;;;;;;5013378;28;20442;-68
2022/08/29 07:48:40;;;;;;;14.30;11.73;;;20.20;99.90;;;;;;5013578;28;20487;-68
2022/08/29 07:51:11;;;;;;;13.57;11.17;;;20.30;99.90;;;;;;5013229;28;20807;-68
2022/08/29 07:53:37;;;;;;;13.70;11.90;;;20.20;99.90;;;;;;5012732;28;20411;-68
2022/08/29 07:56:09;;;;;;;11.63;10.40;;;20.40;99.90;;;;;;5013276;28;20407;-68
2022/08/29 07:58:35;;;;;;;13.17;11.70;;;20.50;99.90;;;;;;5028676;28;20452;-68
2022/08/29 08:01:02;;;;;;;12.33;11.20;;;20.40;99.90;;;;;;5013597;28;20803;-68
2022/08/29 08:03:28;;;;;;;12.03;10.70;;;20.60;99.90;;;;;;5013469;28;20912;-69
2022/08/29 08:05:54;;;;;;;12.20;10.90;;;20.60;99.90;;;;;;5012886;28;20443;-69
2022/08/29 08:08:20;;;;;;;14.83;11.40;;;20.70;99.90;;;;;;5012605;28;20465;-68
2022/08/29 08:10:46;;;;;;;16.43;12.07;;;20.60;99.90;;;;;;5013228;28;20695;-68
2022/08/29 08:13:12;;;;;;;13.33;11.90;;;20.70;99.90;;;;;;5012651;28;20164;-69
2022/08/29 08:15:38;;;;;;;12.00;10.80;;;20.80;99.90;;;;;;5013248;28;20938;-68
2022/08/29 08:18:04;;;;;;;10.77;9.77;;;21.00;99.90;;;;;;5011832;28;20462;-68
2022/08/29 08:20:30;;;;;;;13.70;11.60;;;21.10;99.90;;;;;;5013160;28;20226;-68
2022/08/29 08:22:56;;;;;;;11.93;10.70;;;21.40;99.90;;;;;;5012779;28;20443;-68
2022/08/29 08:25:22;;;;;;;11.93;10.70;;;21.30;99.90;;;;;;5012957;28;20222;-68
2022/08/29 08:27:48;;;;;;;11.30;10.20;;;21.20;99.90;;;;;;5013172;28;20465;-69
2022/08/29 08:30:14;;;;;;;17.97;11.70;;;21.30;99.90;;;;;;5012898;28;20442;-69
2022/08/29 08:32:40;;;;;;;15.43;10.80;;;21.40;99.90;;;;;;5013049;28;20908;-68
2022/08/29 08:35:06;;;;;;;13.50;10.30;;;21.70;99.90;;;;;;5012992;28;20680;-68
2022/08/29 08:37:31;;;;;;;13.67;12.13;;;21.80;99.90;;;;;;5012990;28;20406;-68
2022/08/29 08:39:58;;;;;;;11.43;9.70;;;21.80;99.90;;;;;;5012875;28;20183;-69
2022/08/29 08:42:41;;;;;;;11.83;9.93;;;22.00;99.90;;;;;;5012708;28;20683;-69
2022/08/29 08:45:25;;;;;;;13.00;11.80;;;22.00;99.90;;;;;;5012709;28;20825;-68
2022/08/29 08:48:01;;;;;;;11.40;10.27;;;22.20;99.90;;;;;;5015475;28;20419;-69
2022/08/29 08:50:43;;;;;;;12.13;10.77;;;22.40;99.90;;;;;;5011551;28;20450;-69
2022/08/29 08:53:18;;;;;;;13.47;10.57;;;22.80;99.90;;;;;;5013938;28;20399;-69
2022/08/29 08:55:47;;;;;;;13.20;11.20;;;22.90;99.90;;;;;;5013082;28;20886;-68
2022/08/29 08:58:33;;;;;;;11.73;10.53;;;22.70;99.90;;;;;;5012862;28;20407;-68
2022/08/29 09:01:21;;;;;;;16.00;10.37;;;22.60;99.90;;;;;;5013277;28;20947;-69
2022/08/29 09:04:21;;;;;;;11.03;9.93;;;22.40;99.90;;;;;;5012136;28;20503;-68
2022/08/29 09:07:11;;;;;;;11.93;9.77;;;22.60;99.90;;;;;;5012798;28;20439;-68
2022/08/29 09:10:01;;;;;;;10.60;9.60;;;22.60;99.90;;;;;;5013234;28;20392;-69
2022/08/29 09:12:44;;;;;;;10.87;9.77;;;22.70;99.90;;;;;;5012418;28;20806;-69
2022/08/29 09:15:16;;;;;;;11.77;9.97;;;23.00;99.90;;;;;;5012868;28;20395;-69
2022/08/29 09:18:03;;;;;;;13.07;9.17;;;23.10;99.90;;;;;;5011291;28;20442;-70
2022/08/29 09:20:31;;;;;;;9.70;8.67;;;23.40;99.90;;;;;;5012451;28;20488;-69
2022/08/29 09:23:09;;;;;;;9.60;8.73;;;23.50;99.90;;;;;;5012600;28;20410;-69
2022/08/29 09:25:35;;;;;;;9.43;8.13;;;23.80;99.90;;;;;;5011501;28;20472;-68
2022/08/29 09:28:03;;;;;;;9.03;8.23;;;23.70;99.90;;;;;;5012438;28;20908;-69
2022/08/29 09:30:35;;;;;;;9.37;8.13;;;23.80;99.90;;;;;;5011589;28;20692;-68
2022/08/29 09:33:03;;;;;;;9.80;8.90;;;23.80;99.90;;;;;;5015932;28;20987;-69
2022/08/29 09:35:41;;;;;;;9.23;8.43;;;23.90;99.90;;;;;;5016429;28;20423;-69
2022/08/29 09:38:17;;;;;;;15.57;10.27;;;24.20;99.90;;;;;;5016231;28;20878;-68
2022/08/29 09:40:55;;;;;;;9.57;8.77;;;24.20;99.90;;;;;;5016345;28;20421;-69
2022/08/29 09:43:39;;;;;;;8.40;7.50;;;24.30;99.90;;;;;;5016191;28;20395;-69
2022/08/29 09:46:10;;;;;;;9.13;7.90;;;24.30;99.90;;;;;;5016029;28;20474;-68
2022/08/29 09:48:48;;;;;;;11.67;8.03;;;24.50;99.90;;;;;;5016116;28;20391;-68
2022/08/29 09:51:23;;;;;;;10.47;8.40;;;24.30;99.90;;;;;;5015588;28;20477;-68
2022/08/29 09:53:50;;;;;;;8.97;8.17;;;24.50;99.90;;;;;;5016360;28;20387;-69
2022/08/29 09:56:24;;;;;;;9.73;8.80;;;24.80;99.90;;;;;;5016417;28;20541;-68
2022/08/29 09:59:09;;;;;;;8.47;7.67;;;24.80;99.90;;;;;;5015707;28;20494;-68
2022/08/29 10:01:37;;;;;;;8.27;7.47;;;24.80;99.90;;;;;;5015561;28;20410;-68
2022/08/29 10:04:05;;;;;;;7.73;6.17;;;24.90;99.90;;;;;;5015822;28;20418;-69
2022/08/29 10:06:39;;;;;;;7.67;6.70;;;25.30;99.90;;;;;;5014322;28;20545;-69
2022/08/29 10:09:07;;;;;;;8.83;7.73;;;25.20;99.90;;;;;;5007560;28;20399;-69
2022/08/29 10:11:48;;;;;;;9.83;7.90;;;25.20;99.90;;;;;;5015805;28;20504;-69
2022/08/29 10:14:40;;;;;;;8.50;7.63;;;25.20;99.90;;;;;;5015794;28;20471;-68
2022/08/29 10:20:20;;;;;;;7.60;6.17;;;25.30;99.90;;;;;;5014432;28;20450;-69
2022/08/29 10:23:05;;;;;;;6.87;6.17;;;25.30;99.90;;;;;;5015614;28;20502;-69
2022/08/29 10:25:40;;;;;;;8.13;6.50;;;25.20;99.90;;;;;;5014269;28;20459;-68
2022/08/29 10:28:24;;;;;;;6.60;6.00;;;25.40;99.90;;;;;;5015284;28;20489;-69
2022/08/29 10:31:13;;;;;;;6.57;5.87;;;25.30;99.90;;;;;;5015628;28;20813;-69
2022/08/29 10:33:48;;;;;;;10.67;5.73;;;25.60;99.90;;;;;;5014486;28;20415;-69
2022/08/29 10:36:19;;;;;;;6.73;6.13;;;26.10;99.90;;;;;;5015274;28;20406;-69
2022/08/29 10:38:49;;;;;;;8.23;7.23;;;26.10;99.90;;;;;;5014362;28;20431;-68
2022/08/29 10:41:38;;;;;;;8.17;5.83;;;26.40;99.90;;;;;;5014829;28;20950;-69
2022/08/29 10:44:18;;;;;;;5.67;5.17;;;26.70;99.90;;;;;;5014738;28;20807;-69
2022/08/29 10:46:59;;;;;;;7.33;6.73;;;26.30;99.70;;;;;;5015131;28;20458;-69
2022/08/29 10:49:43;;;;;;;6.63;6.03;;;26.20;99.90;;;;;;5014615;28;20467;-69
2022/08/29 10:52:25;;;;;;;7.10;6.40;;;26.40;99.90;;;;;;5013692;28;20450;-69
2022/08/29 10:55:21;;;;;;;7.63;6.53;;;27.30;99.60;;;;;;5013884;28;20924;-69
2022/08/29 10:58:08;;;;;;;7.70;6.90;;;27.80;98.70;;;;;;5014547;28;20856;-69
2022/08/29 11:00:46;;;;;;;6.43;5.93;;;28.80;97.60;;;;;;5014880;28;20511;-69
2022/08/29 11:03:38;;;;;;;6.37;5.80;;;29.60;96.00;;;;;;5013216;28;20955;-69
2022/08/29 11:06:30;;;;;;;7.03;6.33;;;30.80;93.90;;;;;;5014551;28;20814;-69
2022/08/29 11:09:32;;;;;;;6.13;5.53;;;31.60;91.60;;;;;;5029821;28;20795;-69
2022/08/29 11:12:14;;;;;;;8.90;5.90;;;31.20;90.00;;;;;;5014511;28;20429;-69
2022/08/29 11:14:55;;;;;;;6.33;5.10;;;29.90;91.40;;;;;;5013971;28;20407;-69
2022/08/29 11:17:24;;;;;;;6.53;5.67;;;29.90;91.30;;;;;;5014401;28;20427;-69
2022/08/29 11:19:50;;;;;;;5.70;5.20;;;30.30;90.50;;;;;;5029651;28;20434;-69
2022/08/29 11:22:32;;;;;;;8.10;5.40;;;31.70;89.10;;;;;;5014458;28;20427;-69
2022/08/29 11:25:18;;;;;;;6.40;5.70;;;32.10;84.50;;;;;;5013641;28;20226;-71
2022/08/29 11:28:12;;;;;;;6.13;5.40;;;32.70;82.80;;;;;;5013485;28;20403;-70
2022/08/29 11:30:43;;;;;;;6.83;4.80;;;32.20;82.30;;;;;;5014550;28;20981;-69
2022/08/29 11:33:12;;;;;;;5.20;4.70;;;31.70;83.00;;;;;;5014242;28;20510;-69
2022/08/29 11:36:11;;;;;;;5.33;4.80;;;31.80;82.80;;;;;;5014360;28;20763;-69
2022/08/29 11:38:58;;;;;;;5.47;4.97;;;31.90;83.50;;;;;;5014150;28;20886;-69
2022/08/29 11:41:34;;;;;;;6.43;4.93;;;33.00;79.40;;;;;;5013456;28;20431;-69
2022/08/29 11:44:20;;;;;;;6.00;4.97;;;31.40;82.10;;;;;;5014034;28;20494;-68
2022/08/29 11:46:50;;;;;;;5.60;5.00;;;29.70;86.60;;;;;;5014302;28;20461;-67
2022/08/29 11:49:44;;;;;;;7.77;5.03;;;28.90;88.80;;;;;;5013813;28;20403;-67
2022/08/29 11:52:09;;;;;;;5.60;4.70;;;28.50;90.40;;;;;;5050222;23;20521;-68
2022/08/29 11:54:35;;;;;;;5.70;5.03;;;28.70;90.20;;;;;;5034069;28;20406;-68
2022/08/29 11:57:01;;;;;;;6.20;5.17;;;29.30;90.00;;;;;;5033533;28;20170;-70
2022/08/29 11:59:45;;;;;;;5.50;4.50;;;30.70;85.10;;;;;;5033761;28;20174;-68
2022/08/29 12:02:30;;;;;;;5.23;4.50;;;33.00;78.90;;;;;;5033622;28;20556;-69
2022/08/29 12:05:15;;;;;;;9.77;4.57;;;34.20;73.10;;;;;;5033829;28;20925;-69
2022/08/29 12:07:50;;;;;;;7.60;4.57;;;34.00;72.60;;;;;;5033988;28;20387;-69
2022/08/29 12:10:20;;;;;;;5.47;4.97;;;33.20;73.40;;;;;;5033803;28;20394;-69
2022/08/29 12:13:01;;;;;;;6.87;4.60;;;31.60;76.80;;;;;;5033078;28;20437;-69
2022/08/29 12:15:33;;;;;;;7.53;4.40;;;32.20;74.50;;;;;;5033913;28;20394;-69
2022/08/29 12:18:16;;;;;;;5.17;4.40;;;32.20;76.20;;;;;;5033744;28;20422;-68
2022/08/29 12:20:43;;;;;;;7.63;5.03;;;31.00;77.70;;;;;;5033364;28;20399;-69
2022/08/29 12:23:11;;;;;;;5.30;4.47;;;31.20;76.90;;;;;;5033334;28;20410;-68
2022/08/29 12:25:43;;;;;;;5.00;4.30;;;32.70;75.00;;;;;;5032522;28;20479;-69
2022/08/29 12:28:22;;;;;;;6.53;4.50;;;33.80;70.70;;;;;;5031726;28;20422;-68
2022/08/29 12:30:57;;;;;;;7.43;5.43;;;33.30;71.00;;;;;;5033355;28;20390;-68
2022/08/29 12:33:53;;;;;;;5.00;4.50;;;33.00;71.40;;;;;;5032419;28;20406;-68
2022/08/29 12:36:42;;;;;;;6.00;4.50;;;34.30;68.00;;;;;;5033376;28;20406;-68
2022/08/29 12:40:06;;;;;;;4.53;3.93;;;36.00;64.30;;;;;;5033399;28;20397;-69
2022/08/29 12:42:49;;;;;;;4.87;4.47;;;35.60;61.90;;;;;;4981732;28;20436;-69
2022/08/29 12:45:21;;;;;;;6.33;4.40;;;35.90;61.20;;;;;;5032919;28;20404;-67
2022/08/29 12:47:52;;;;;;;5.40;4.83;;;33.80;63.60;;;;;;5033192;28;20398;-69
2022/08/29 12:50:26;;;;;;;6.20;4.13;;;35.10;62.90;;;;;;5032801;28;20413;-70
2022/08/29 12:53:15;;;;;;;4.63;4.13;;;33.60;64.70;;;;;;5032914;28;21017;-69
2022/08/29 12:55:43;;;;;;;5.50;4.70;;;33.30;65.20;;;;;;5033523;28;20494;-70
2022/08/29 12:58:11;;;;;;;4.20;3.80;;;33.80;65.10;;;;;;5032659;28;20883;-69
2022/08/29 13:00:37;;;;;;;4.30;3.73;;;35.00;62.50;;;;;;5031304;28;20501;-69
2022/08/29 13:03:16;;;;;;;4.60;4.20;;;33.50;63.80;;;;;;5013158;28;20438;-69